createdAt,value
2023-04-16T00:01:59.894Z,13.60
2023-04-16T00:04:30.066Z,13.60
2023-04-16T00:06:56.914Z,13.60
2023-04-16T00:09:23.955Z,13.60
2023-04-16T00:11:51.036Z,13.60
2023-04-16T00:14:17.935Z,13.60
2023-04-16T00:16:44.800Z,13.60
2023-04-16T00:19:12.364Z,13.60
2023-04-16T00:21:39.350Z,13.60
2023-04-16T00:24:06.498Z,13.60
2023-04-16T00:26:33.570Z,13.60
2023-04-16T00:29:01.090Z,13.60
2023-04-16T00:31:32.915Z,13.60
2023-04-16T00:34:00.381Z,13.60
2023-04-16T00:36:28.617Z,13.60
2023-04-16T00:38:57.154Z,13.60
2023-04-16T00:41:24.546Z,13.60
2023-04-16T00:43:51.769Z,13.60
2023-04-16T00:46:24.622Z,13.50
2023-04-16T00:48:54.238Z,13.50
2023-04-16T00:51:21.664Z,13.50
2023-04-16T00:53:49.227Z,13.50
2023-04-16T00:56:17.625Z,13.50
2023-04-16T00:58:45.173Z,13.40
2023-04-16T01:01:14.466Z,13.40
2023-04-16T01:03:46.120Z,13.40
2023-04-16T01:06:14.038Z,13.40
2023-04-16T01:08:41.213Z,13.40
2023-04-16T01:11:08.298Z,13.40
2023-04-16T01:13:39.264Z,13.30
2023-04-16T01:16:08.285Z,13.40
2023-04-16T01:18:36.632Z,13.30
2023-04-16T01:21:04.083Z,13.40
2023-04-16T01:23:31.438Z,13.30
2023-04-16T01:25:58.270Z,13.30
2023-04-16T01:28:25.613Z,13.30
2023-04-16T01:30:52.643Z,13.30
2023-04-16T01:33:32.784Z,13.30
2023-04-16T01:35:59.799Z,13.30
2023-04-16T01:38:26.599Z,13.30
2023-04-16T01:41:00.031Z,13.30
2023-04-16T01:43:27.080Z,13.20
2023-04-16T01:46:16.046Z,13.30
2023-04-16T01:48:43.414Z,13.30
2023-04-16T01:51:10.278Z,13.30
2023-04-16T01:53:37.467Z,13.20
2023-04-16T01:56:04.862Z,13.20
2023-04-16T01:58:33.419Z,13.20
2023-04-16T02:01:00.942Z,13.20
2023-04-16T02:03:28.347Z,13.20
2023-04-16T02:05:55.264Z,13.30
2023-04-16T02:08:22.139Z,13.30
2023-04-16T02:10:50.876Z,13.30
2023-04-16T02:13:17.847Z,13.30
2023-04-16T02:15:48.223Z,13.30
2023-04-16T02:18:18.427Z,13.30
2023-04-16T02:20:47.110Z,13.30
2023-04-16T02:23:17.416Z,13.30
2023-04-16T02:25:47.070Z,13.30
2023-04-16T02:28:17.247Z,13.20
2023-04-16T02:30:46.260Z,13.20
2023-04-16T02:33:15.288Z,13.30
2023-04-16T02:35:52.439Z,13.30
2023-04-16T02:38:19.935Z,13.30
2023-04-16T02:40:46.745Z,13.30
2023-04-16T02:43:13.715Z,13.40
2023-04-16T02:45:40.858Z,13.40
2023-04-16T02:48:09.094Z,13.40
2023-04-16T02:50:36.182Z,13.40
2023-04-16T02:53:04.374Z,13.40
2023-04-16T02:55:31.291Z,13.30
2023-04-16T02:57:58.174Z,13.30
2023-04-16T03:00:25.820Z,13.40
2023-04-16T03:02:52.840Z,13.40
2023-04-16T03:05:19.916Z,13.30
2023-04-16T03:07:46.972Z,13.30
2023-04-16T03:10:15.262Z,13.30
2023-04-16T03:12:42.127Z,13.30
2023-04-16T03:15:09.574Z,13.30
2023-04-16T03:17:36.474Z,13.30
2023-04-16T03:20:04.208Z,13.30
2023-04-16T03:22:31.421Z,13.30
2023-04-16T03:24:58.285Z,13.30
2023-04-16T03:27:25.090Z,13.30
2023-04-16T03:29:52.306Z,13.30
2023-04-16T03:32:19.436Z,13.30
2023-04-16T03:34:46.444Z,13.30
2023-04-16T03:37:13.270Z,13.40
2023-04-16T03:39:40.348Z,13.40
2023-04-16T03:42:07.246Z,13.40
2023-04-16T03:44:35.042Z,13.40
2023-04-16T03:47:02.318Z,13.30
2023-04-16T03:49:29.416Z,13.30
2023-04-16T03:51:57.346Z,13.30
2023-04-16T03:54:25.748Z,13.30
2023-04-16T03:57:03.121Z,13.30
2023-04-16T03:59:29.968Z,13.30
2023-04-16T04:01:57.158Z,13.30
2023-04-16T04:04:24.278Z,13.20
2023-04-16T04:06:51.141Z,13.30
2023-04-16T04:09:18.036Z,13.30
2023-04-16T04:11:45.655Z,13.20
2023-04-16T04:14:12.462Z,13.20
2023-04-16T04:16:39.394Z,13.20
2023-04-16T04:19:06.436Z,13.20
2023-04-16T04:21:33.375Z,13.20
2023-04-16T04:24:00.221Z,13.20
2023-04-16T04:26:29.691Z,13.20
2023-04-16T04:28:57.100Z,13.20
2023-04-16T04:31:24.040Z,13.20
2023-04-16T04:33:51.101Z,13.20
2023-04-16T04:36:17.999Z,13.30
2023-04-16T04:38:45.023Z,13.30
2023-04-16T04:41:11.983Z,13.20
2023-04-16T04:43:39.360Z,13.10
2023-04-16T04:46:06.620Z,13.10
2023-04-16T04:48:33.881Z,13.10
2023-04-16T04:51:03.517Z,13.10
2023-04-16T04:53:31.631Z,13.10
2023-04-16T04:56:05.471Z,13.10
2023-04-16T04:58:38.884Z,13.10
2023-04-16T05:01:06.290Z,13.10
2023-04-16T05:03:33.298Z,13.10
2023-04-16T05:06:00.272Z,13.10
2023-04-16T05:08:27.288Z,13.10
2023-04-16T05:10:54.084Z,13.10
2023-04-16T05:13:21.045Z,13.10
2023-04-16T05:15:48.028Z,13.10
2023-04-16T05:18:14.884Z,13.10
2023-04-16T05:20:41.782Z,13.10
2023-04-16T05:23:08.898Z,13.20
2023-04-16T05:25:35.758Z,13.20
2023-04-16T05:28:02.698Z,13.20
2023-04-16T05:30:29.636Z,13.20
2023-04-16T05:32:56.588Z,13.10
2023-04-16T05:35:23.465Z,13.10
2023-04-16T05:37:50.516Z,13.20
2023-04-16T05:40:17.400Z,13.10
2023-04-16T05:42:44.237Z,13.10
2023-04-16T05:45:11.242Z,13.20
2023-04-16T05:47:38.161Z,13.20
2023-04-16T05:50:05.547Z,13.20
2023-04-16T05:52:32.468Z,13.20
2023-04-16T05:55:01.680Z,13.20
2023-04-16T05:57:29.272Z,13.20
2023-04-16T05:59:56.175Z,13.20
2023-04-16T06:02:23.226Z,13.20
2023-04-16T06:04:50.415Z,13.20
2023-04-16T06:07:17.370Z,13.20
2023-04-16T06:09:45.130Z,13.30
2023-04-16T06:12:12.069Z,13.20
2023-04-16T06:14:38.916Z,13.20
2023-04-16T06:17:05.743Z,13.20
2023-04-16T06:19:32.549Z,13.20
2023-04-16T06:21:59.643Z,13.30
2023-04-16T06:24:26.405Z,13.30
2023-04-16T06:26:54.362Z,13.30
2023-04-16T06:29:27.938Z,13.30
2023-04-16T06:32:00.732Z,13.30
2023-04-16T06:34:28.577Z,13.30
2023-04-16T06:36:55.716Z,13.30
2023-04-16T06:39:22.511Z,13.30
2023-04-16T06:41:49.666Z,13.30
2023-04-16T06:44:17.894Z,13.30
2023-04-16T06:46:44.685Z,13.30
2023-04-16T06:49:11.935Z,13.30
2023-04-16T06:51:38.999Z,13.30
2023-04-16T06:54:06.252Z,13.40
2023-04-16T06:56:33.313Z,13.30
2023-04-16T06:59:00.977Z,13.40
2023-04-16T07:01:28.718Z,13.40
2023-04-16T07:03:55.932Z,13.40
2023-04-16T07:06:23.047Z,13.40
2023-04-16T07:08:49.923Z,13.40
2023-04-16T07:11:17.194Z,13.40
2023-04-16T07:13:44.020Z,13.40
2023-04-16T07:16:11.022Z,13.40
2023-04-16T07:18:38.046Z,13.50
2023-04-16T07:21:04.865Z,13.50
2023-04-16T07:23:31.813Z,13.50
2023-04-16T07:25:58.726Z,13.50
2023-04-16T07:28:25.833Z,13.50
2023-04-16T07:30:52.810Z,13.50
2023-04-16T07:33:19.646Z,13.50
2023-04-16T07:35:46.511Z,13.50
2023-04-16T07:38:13.431Z,13.50
2023-04-16T07:40:40.525Z,13.50
2023-04-16T07:43:07.438Z,13.60
2023-04-16T07:45:34.384Z,13.50
2023-04-16T07:48:01.476Z,13.60
2023-04-16T07:50:28.551Z,13.50
2023-04-16T07:52:55.369Z,13.60
2023-04-16T07:55:22.330Z,13.60
2023-04-16T07:57:49.222Z,13.60
2023-04-16T08:00:16.495Z,13.70
2023-04-16T08:02:44.530Z,13.70
2023-04-16T08:05:13.319Z,13.70
2023-04-16T08:07:40.635Z,13.70
2023-04-16T08:10:08.197Z,13.80
2023-04-16T08:12:35.373Z,13.80
2023-04-16T08:15:02.263Z,13.80
2023-04-16T08:17:30.199Z,13.90
2023-04-16T08:19:57.186Z,13.90
2023-04-16T08:22:24.006Z,13.90
2023-04-16T08:24:50.850Z,13.90
2023-04-16T08:27:19.600Z,13.90
2023-04-16T08:29:47.471Z,13.90
2023-04-16T08:32:14.419Z,13.90
2023-04-16T08:34:42.449Z,13.90
2023-04-16T08:37:09.668Z,13.90
2023-04-16T08:39:36.658Z,13.90
2023-04-16T08:42:11.219Z,13.90
2023-04-16T08:44:41.567Z,13.90
2023-04-16T08:47:11.899Z,13.90
2023-04-16T08:49:44.378Z,13.90
2023-04-16T08:52:18.355Z,13.90
2023-04-16T08:54:58.413Z,13.90
2023-04-16T08:57:48.941Z,13.90
2023-04-16T09:00:16.848Z,14.00
2023-04-16T09:02:44.136Z,14.00
2023-04-16T09:05:14.381Z,14.10
2023-04-16T09:07:42.158Z,14.20
2023-04-16T09:10:09.921Z,14.30
2023-04-16T09:12:36.900Z,14.30
2023-04-16T09:15:05.169Z,14.30
2023-04-16T09:17:32.049Z,14.30
2023-04-16T09:19:59.179Z,14.30
2023-04-16T09:22:26.124Z,14.20
2023-04-16T09:24:53.049Z,14.20
2023-04-16T09:27:20.713Z,14.20
2023-04-16T09:29:47.720Z,14.30
2023-04-16T09:32:14.724Z,14.30
2023-04-16T09:34:59.204Z,14.30
2023-04-16T09:37:27.816Z,14.30
2023-04-16T09:40:02.526Z,14.40
2023-04-16T09:42:32.309Z,14.40
2023-04-16T09:45:01.314Z,14.40
2023-04-16T09:47:41.320Z,14.40
2023-04-16T09:50:12.266Z,14.40
2023-04-16T09:52:39.706Z,14.40
2023-04-16T09:55:06.983Z,14.40
2023-04-16T09:57:37.028Z,14.40
2023-04-16T10:00:06.230Z,14.50
2023-04-16T10:02:34.695Z,14.50
2023-04-16T10:05:05.813Z,14.50
2023-04-16T10:07:36.943Z,14.50
2023-04-16T10:10:04.589Z,14.50
2023-04-16T10:12:32.821Z,14.50
2023-04-16T10:15:00.129Z,14.50
2023-04-16T10:17:30.168Z,14.50
2023-04-16T10:19:58.248Z,14.50
2023-04-16T10:22:26.174Z,14.50
2023-04-16T10:24:53.882Z,14.40
2023-04-16T10:27:21.271Z,14.40
2023-04-16T10:29:49.282Z,14.50
2023-04-16T10:32:17.868Z,14.50
2023-04-16T10:34:47.070Z,14.60
2023-04-16T10:37:15.912Z,14.60
2023-04-16T10:39:42.783Z,14.60
2023-04-16T10:42:11.985Z,14.70
2023-04-16T10:44:42.785Z,14.70
2023-04-16T10:47:13.283Z,14.80
2023-04-16T10:49:41.365Z,14.80
2023-04-16T10:52:19.001Z,14.80
2023-04-16T10:54:50.426Z,14.80
2023-04-16T10:57:19.735Z,14.80
2023-04-16T10:59:48.791Z,14.90
2023-04-16T11:02:17.924Z,14.90
2023-04-16T11:04:46.677Z,14.90
2023-04-16T11:07:16.627Z,15.00
2023-04-16T11:10:02.517Z,15.00
2023-04-16T11:12:29.717Z,15.00
2023-04-16T11:15:06.803Z,15.00
2023-04-16T11:18:00.496Z,15.00
2023-04-16T11:20:28.385Z,15.10
2023-04-16T11:22:56.670Z,15.10
2023-04-16T11:25:26.119Z,15.10
2023-04-16T11:27:53.758Z,15.20
2023-04-16T11:30:29.911Z,15.20
2023-04-16T11:32:56.878Z,15.30
2023-04-16T11:35:23.791Z,15.30
2023-04-16T11:37:55.575Z,15.40
2023-04-16T11:40:22.532Z,15.40
2023-04-16T11:42:49.416Z,15.50
2023-04-16T11:45:16.396Z,15.60
2023-04-16T11:47:52.291Z,15.60
2023-04-16T11:50:27.656Z,15.60
2023-04-16T11:52:57.113Z,15.60
2023-04-16T11:55:24.682Z,15.70
2023-04-16T11:57:51.734Z,15.60
2023-04-16T12:00:24.461Z,15.60
2023-04-16T12:02:55.661Z,15.60
2023-04-16T12:05:39.094Z,15.60
2023-04-16T12:08:10.735Z,15.60
2023-04-16T12:10:55.496Z,15.60
2023-04-16T12:13:23.414Z,15.60
2023-04-16T12:15:56.096Z,15.60
2023-04-16T12:18:26.817Z,15.50
2023-04-16T12:20:53.876Z,15.50
2023-04-16T12:23:29.442Z,15.50
2023-04-16T12:26:02.291Z,15.50
2023-04-16T12:28:32.211Z,15.60
2023-04-16T12:30:59.545Z,15.60
2023-04-16T12:33:26.461Z,15.70
2023-04-16T12:35:53.490Z,15.70
2023-04-16T12:38:22.797Z,15.70
2023-04-16T12:40:51.070Z,15.70
2023-04-16T12:43:18.278Z,15.70
2023-04-16T12:45:45.449Z,15.70
2023-04-16T12:48:12.292Z,15.70
2023-04-16T12:50:39.834Z,15.70
2023-04-16T12:53:06.720Z,15.80
2023-04-16T12:55:33.554Z,15.80
2023-04-16T12:58:00.389Z,15.90
2023-04-16T13:00:27.330Z,16.00
2023-04-16T13:02:54.397Z,16.00
2023-04-16T13:05:21.443Z,16.00
2023-04-16T13:07:48.353Z,16.00
2023-04-16T13:10:16.647Z,16.00
2023-04-16T13:12:43.630Z,16.00
2023-04-16T13:15:11.094Z,16.10
2023-04-16T13:17:37.997Z,16.10
2023-04-16T13:20:05.613Z,16.10
2023-04-16T13:22:32.469Z,16.20
2023-04-16T13:24:59.408Z,16.20
2023-04-16T13:27:26.374Z,16.20
2023-04-16T13:29:53.358Z,16.30
2023-04-16T13:32:20.431Z,16.30
2023-04-16T13:34:47.516Z,16.40
2023-04-16T13:37:14.442Z,16.40
2023-04-16T13:39:41.581Z,16.40
2023-04-16T13:42:08.684Z,16.50
2023-04-16T13:44:35.559Z,16.50
2023-04-16T13:47:02.579Z,16.50
2023-04-16T13:49:29.673Z,16.50
2023-04-16T13:51:56.456Z,16.60
2023-04-16T13:54:23.278Z,16.60
2023-04-16T13:56:51.232Z,16.60
2023-04-16T13:59:18.734Z,16.70
2023-04-16T14:01:46.036Z,16.70
2023-04-16T14:04:13.458Z,16.70
2023-04-16T14:06:40.600Z,16.70
2023-04-16T14:09:09.591Z,16.70
2023-04-16T14:11:37.348Z,16.80
2023-04-16T14:14:04.205Z,16.80
2023-04-16T14:16:31.444Z,16.90
2023-04-16T14:18:58.461Z,16.90
2023-04-16T14:21:25.354Z,16.90
2023-04-16T14:23:52.178Z,16.90
2023-04-16T14:26:19.083Z,17.00
2023-04-16T14:28:45.942Z,17.00
2023-04-16T14:31:12.832Z,17.00
2023-04-16T14:33:39.714Z,17.00
2023-04-16T14:36:06.899Z,17.00
2023-04-16T14:38:33.699Z,16.90
2023-04-16T14:41:00.719Z,16.80
2023-04-16T14:43:27.847Z,16.80
2023-04-16T14:45:54.787Z,16.70
2023-04-16T14:48:22.187Z,16.70
2023-04-16T14:50:49.064Z,16.60
2023-04-16T14:53:16.314Z,16.60
2023-04-16T14:55:43.192Z,16.60
2023-04-16T14:58:10.890Z,16.60
2023-04-16T15:00:38.003Z,16.60
2023-04-16T15:03:05.930Z,16.60
2023-04-16T15:05:33.179Z,16.50
2023-04-16T15:08:00.598Z,16.50
2023-04-16T15:10:27.849Z,16.50
2023-04-16T15:12:54.639Z,16.50
2023-04-16T15:15:21.574Z,16.50
2023-04-16T15:17:50.456Z,16.50
2023-04-16T15:20:17.599Z,16.50
2023-04-16T15:22:44.649Z,16.50
2023-04-16T15:25:11.935Z,16.50
2023-04-16T15:27:38.778Z,16.50
2023-04-16T15:30:06.569Z,16.50
2023-04-16T15:32:33.605Z,16.50
2023-04-16T15:35:02.078Z,16.40
2023-04-16T15:37:28.870Z,16.40
2023-04-16T15:39:56.746Z,16.40
2023-04-16T15:42:24.466Z,16.40
2023-04-16T15:44:51.253Z,16.30
2023-04-16T15:47:18.198Z,16.30
2023-04-16T15:49:44.989Z,16.30
2023-04-16T15:52:12.118Z,16.20
2023-04-16T15:54:39.226Z,16.30
2023-04-16T15:57:06.426Z,16.30
2023-04-16T15:59:33.243Z,16.30
2023-04-16T16:02:00.347Z,16.30
2023-04-16T16:04:28.289Z,16.20
2023-04-16T16:06:56.248Z,16.20
2023-04-16T16:09:26.910Z,16.30
2023-04-16T16:11:54.503Z,16.30
2023-04-16T16:14:22.128Z,16.30
2023-04-16T16:16:49.134Z,16.30
2023-04-16T16:19:16.721Z,16.30
2023-04-16T16:21:43.678Z,16.30
2023-04-16T16:24:10.840Z,16.30
2023-04-16T16:26:37.854Z,16.30
2023-04-16T16:29:05.113Z,16.30
2023-04-16T16:31:31.991Z,16.30
2023-04-16T16:33:58.859Z,16.30
2023-04-16T16:36:26.585Z,16.30
2023-04-16T16:38:53.588Z,16.30
2023-04-16T16:41:20.595Z,16.20
2023-04-16T16:43:47.392Z,16.20
2023-04-16T16:46:14.471Z,16.20
2023-04-16T16:48:41.281Z,16.20
2023-04-16T16:51:10.566Z,16.20
2023-04-16T16:53:37.573Z,16.20
2023-04-16T16:56:04.565Z,16.10
2023-04-16T16:58:31.543Z,16.10
2023-04-16T17:00:58.975Z,16.00
2023-04-16T17:03:26.121Z,16.00
2023-04-16T17:05:53.010Z,16.00
2023-04-16T17:08:19.855Z,16.00
2023-04-16T17:10:46.809Z,16.00
2023-04-16T17:13:15.120Z,16.00
2023-04-16T17:15:42.152Z,16.00
2023-04-16T17:18:09.018Z,16.10
2023-04-16T17:20:35.797Z,16.10
2023-04-16T17:23:03.190Z,16.10
2023-04-16T17:25:30.465Z,16.10
2023-04-16T17:27:57.217Z,16.10
2023-04-16T17:30:25.909Z,16.10
2023-04-16T17:32:52.917Z,16.10
2023-04-16T17:35:19.839Z,16.00
2023-04-16T17:37:46.659Z,16.00
2023-04-16T17:40:15.529Z,16.00
2023-04-16T17:42:42.671Z,16.00
2023-04-16T17:45:09.879Z,16.00
2023-04-16T17:47:36.938Z,15.90
2023-04-16T17:50:04.543Z,15.90
2023-04-16T17:52:31.382Z,15.90
2023-04-16T17:55:01.347Z,15.90
2023-04-16T17:57:28.523Z,15.80
2023-04-16T17:59:55.689Z,15.70
2023-04-16T18:02:23.173Z,15.60
2023-04-16T18:04:50.624Z,15.60
2023-04-16T18:07:17.540Z,15.50
2023-04-16T18:09:44.323Z,15.50
2023-04-16T18:12:11.242Z,15.40
2023-04-16T18:14:40.739Z,15.40
2023-04-16T18:17:07.588Z,15.40
2023-04-16T18:19:35.515Z,15.30
2023-04-16T18:22:02.438Z,15.20
2023-04-16T18:24:29.291Z,15.10
2023-04-16T18:26:56.819Z,15.10
2023-04-16T18:29:25.295Z,15.10
2023-04-16T18:31:52.517Z,15.10
2023-04-16T18:34:20.697Z,15.00
2023-04-16T18:36:47.798Z,15.00
2023-04-16T18:39:14.794Z,14.90
2023-04-16T18:41:43.702Z,14.90
2023-04-16T18:44:13.309Z,15.00
2023-04-16T18:46:40.596Z,14.90
2023-04-16T18:49:07.566Z,15.00
2023-04-16T18:51:34.544Z,15.00
2023-04-16T18:54:01.368Z,15.00
2023-04-16T18:56:31.042Z,15.00
2023-04-16T18:58:57.781Z,15.00
2023-04-16T19:01:24.678Z,15.00
2023-04-16T19:03:51.661Z,15.00
2023-04-16T19:06:18.654Z,14.90
2023-04-16T19:08:45.618Z,14.90
2023-04-16T19:11:12.534Z,14.80
2023-04-16T19:13:39.853Z,14.80
2023-04-16T19:16:11.300Z,14.80
2023-04-16T19:18:39.068Z,14.80
2023-04-16T19:21:07.254Z,14.80
2023-04-16T19:23:34.154Z,14.70
2023-04-16T19:26:01.520Z,14.70
2023-04-16T19:28:28.857Z,14.70
2023-04-16T19:30:56.009Z,14.70
2023-04-16T19:33:22.880Z,14.70
2023-04-16T19:35:49.969Z,14.60
2023-04-16T19:38:16.876Z,14.70
2023-04-16T19:40:45.797Z,14.60
2023-04-16T19:43:12.937Z,14.60
2023-04-16T19:45:47.464Z,14.60
2023-04-16T19:48:14.894Z,14.50
2023-04-16T19:50:42.402Z,14.60
2023-04-16T19:53:09.517Z,14.60
2023-04-16T19:55:36.692Z,14.50
2023-04-16T19:58:06.476Z,14.50
2023-04-16T20:00:37.431Z,14.50
2023-04-16T20:03:05.191Z,14.50
2023-04-16T20:05:32.255Z,14.40
2023-04-16T20:07:59.447Z,14.40
2023-04-16T20:10:27.822Z,14.40
2023-04-16T20:12:54.813Z,14.40
2023-04-16T20:15:22.156Z,14.40
2023-04-16T20:17:49.142Z,14.30
2023-04-16T20:20:16.486Z,14.30
2023-04-16T20:22:43.776Z,14.30
2023-04-16T20:25:11.370Z,14.30
2023-04-16T20:27:38.262Z,14.30
2023-04-16T20:30:06.428Z,14.30
2023-04-16T20:32:33.529Z,14.30
2023-04-16T20:35:01.933Z,14.30
2023-04-16T20:37:29.235Z,14.30
2023-04-16T20:39:56.299Z,14.30
2023-04-16T20:42:26.188Z,14.30
2023-04-16T20:44:56.275Z,14.30
2023-04-16T20:47:23.347Z,14.40
2023-04-16T20:49:50.436Z,14.40
2023-04-16T20:52:17.346Z,14.50
2023-04-16T20:54:44.281Z,14.50
2023-04-16T20:57:11.135Z,14.50
2023-04-16T20:59:38.099Z,14.50
2023-04-16T21:02:05.448Z,14.50
2023-04-16T21:04:32.460Z,14.50
2023-04-16T21:07:03.167Z,14.50
2023-04-16T21:09:31.334Z,14.40
2023-04-16T21:11:58.253Z,14.40
2023-04-16T21:14:25.400Z,14.40
2023-04-16T21:16:52.294Z,14.30
2023-04-16T21:19:19.156Z,14.20
2023-04-16T21:21:46.192Z,14.20
2023-04-16T21:24:13.094Z,14.20
2023-04-16T21:26:40.111Z,14.20
2023-04-16T21:29:07.182Z,14.20
2023-04-16T21:31:34.302Z,14.20
2023-04-16T21:34:01.201Z,14.20
2023-04-16T21:36:29.285Z,14.30
2023-04-16T21:38:56.152Z,14.30
2023-04-16T21:41:23.038Z,14.30
2023-04-16T21:43:49.774Z,14.30
2023-04-16T21:46:16.827Z,14.40
2023-04-16T21:48:43.762Z,14.40
2023-04-16T21:51:10.712Z,14.30
2023-04-16T21:53:39.028Z,14.20
2023-04-16T21:56:06.587Z,14.20
2023-04-16T21:58:33.472Z,14.10
2023-04-16T22:01:00.504Z,14.10
2023-04-16T22:03:30.395Z,14.10
2023-04-16T22:06:01.494Z,14.00
2023-04-16T22:08:32.073Z,14.00
2023-04-16T22:11:01.307Z,13.90
2023-04-16T22:13:34.115Z,13.90
2023-04-16T22:16:03.971Z,13.90
2023-04-16T22:18:33.875Z,13.90
2023-04-16T22:21:01.052Z,13.90
2023-04-16T22:23:27.918Z,13.90
2023-04-16T22:25:55.991Z,13.90
2023-04-16T22:28:23.582Z,13.90
2023-04-16T22:30:51.130Z,14.00
2023-04-16T22:33:18.397Z,14.00
2023-04-16T22:35:45.609Z,14.00
2023-04-16T22:38:12.449Z,14.10
2023-04-16T22:40:39.313Z,14.10
2023-04-16T22:43:06.267Z,14.10
2023-04-16T22:45:33.087Z,14.10
2023-04-16T22:48:00.044Z,14.10
2023-04-16T22:50:27.232Z,14.10
2023-04-16T22:52:53.996Z,14.10
2023-04-16T22:55:21.070Z,14.10
2023-04-16T22:57:47.907Z,14.20
2023-04-16T23:00:16.560Z,14.20
2023-04-16T23:02:44.231Z,14.10
2023-04-16T23:05:11.886Z,14.10
2023-04-16T23:07:39.076Z,14.10
2023-04-16T23:10:08.232Z,14.00
2023-04-16T23:12:37.481Z,13.90
2023-04-16T23:15:06.402Z,13.90
2023-04-16T23:17:33.879Z,13.90
2023-04-16T23:20:00.932Z,13.80
2023-04-16T23:22:27.994Z,13.80
2023-04-16T23:24:54.807Z,13.80
2023-04-16T23:27:21.762Z,13.80
2023-04-16T23:29:48.683Z,13.80
2023-04-16T23:32:15.572Z,13.70
2023-04-16T23:34:42.576Z,13.70
2023-04-16T23:37:09.522Z,13.70
2023-04-16T23:39:36.368Z,13.80
2023-04-16T23:42:03.331Z,13.80
2023-04-16T23:44:30.674Z,13.90
2023-04-16T23:46:57.556Z,13.90
2023-04-16T23:49:24.674Z,13.90
2023-04-16T23:51:51.750Z,14.00
2023-04-16T23:54:18.789Z,13.90
2023-04-16T23:56:45.754Z,13.90
2023-04-16T23:59:12.866Z,14.00
